• Join FlightAware (Why Join?)
  • Login
  • US Flag 
07:20AM EDT


 

Airport Tracker/Info


-or-


 

Live Flight TrackerFlight Track Log ✈ CSC8825 ✈ 01-Dec-2013 ✈ ZSWZ / WNZ - ZYHB / HRB

Flight Track Log - Related Links

Times and Time Zones

All times are in EST time to prevent confusion due to time zone crossing. See the CSC8825 flight status page for this flight to view local times or setup timezone preferences in your user account.

Time Position Orientation Groundspeed Altitude Reporting Facility
EST Latitude Longitude Course Direction KTS MPH feet Rate Location/Type
10:26PM 28.7652 121.0614 12° North  Level Estimated
10:27PM 28.8718 121.0878 12° North  Level Estimated
10:28PM 28.9784 121.1143 12° North  Level Estimated
10:29PM 29.0850 121.1408 12° North  Level Estimated
10:30PM 29.1855 121.1659 12° North  Level Estimated
10:31PM 29.2861 121.1911 12° North  Level Estimated
10:32PM 29.3866 121.2162 12° North  Level Estimated
10:33PM 29.4872 121.2415 12° North  Level Estimated
10:34PM 29.5877 121.2667 12° North  Level Estimated
10:35PM 29.6883 121.2921 12° North  Level Estimated
10:36PM 29.7888 121.3175 12° North  Level Estimated
10:37PM 29.8893 121.3429 12° North  Level Estimated
10:38PM 29.9898 121.3684 12° North  Level Estimated
10:39PM 30.0904 121.3939 12° North  Level Estimated
10:40PM 30.1909 121.4195 12° North  Level Estimated
10:41PM 30.2914 121.4452 12° North  Level Estimated
10:42PM 30.3919 121.4709 12° North  Level Estimated
10:43PM 30.4924 121.4966 12° North  Level Estimated
10:44PM 30.5929 121.5224 12° North  Level Estimated
10:45PM 30.6934 121.5483 12° North  Level Estimated
10:46PM 30.7938 121.5742 12° North  Level Estimated
10:47PM 30.8943 121.6001 13° North  Level Estimated
10:48PM 30.9948 121.6262 13° North  Level Estimated
10:49PM 31.0953 121.6522 13° North  Level Estimated
10:50PM 31.1957 121.6784 13° North  Level Estimated
10:51PM 31.2962 121.7045 13° North  Level Estimated
10:52PM 31.3966 121.7308 13° North  Level Estimated
10:53PM 31.4971 121.7571 13° North  Level Estimated
10:54PM 31.5975 121.7834 13° North  Level Estimated
10:55PM 31.6979 121.8098 13° North  Level Estimated
10:56PM 31.7984 121.8363 13° North  Level Estimated
10:57PM 31.8988 121.8628 13° North  Level Estimated
10:58PM 31.9992 121.8894 13° North  Level Estimated
10:59PM 32.0996 121.9160 13° North  Level Estimated
11:00PM 32.2000 121.9427 13° North  Level Estimated
11:01PM 32.3004 121.9695 13° North  Level Estimated
11:02PM 32.4008 121.9963 13° North  Level Estimated
11:03PM 32.5012 122.0232 13° North  Level Estimated
11:04PM 32.6016 122.0501 13° North  Level Estimated
11:05PM 32.7020 122.0771 13° North  Level Estimated
11:06PM 32.8023 122.1042 13° North  Level Estimated
11:07PM 32.9027 122.1313 13° North  Level Estimated
11:08PM 33.0031 122.1585 13° North  Level Estimated
11:09PM 33.1034 122.1857 13° North  Level Estimated
11:10PM 33.2038 122.2130 13° North  Level Estimated
11:11PM 33.3041 122.2404 13° North  Level Estimated
11:12PM 33.4044 122.2678 13° North  Level Estimated
11:13PM 33.5048 122.2953 13° North  Level Estimated
11:14PM 33.6051 122.3229 13° North  Level Estimated
11:15PM 33.7054 122.3505 13° North  Level Estimated
11:16PM 33.8057 122.3782 13° North  Level Estimated
11:17PM 33.9060 122.4060 13° North  Level Estimated
11:18PM 34.0063 122.4338 13° North  Level Estimated
11:19PM 34.1066 122.4616 13° North  Level Estimated
11:20PM 34.2069 122.4896 13° North  Level Estimated
11:21PM 34.3072 122.5176 13° North  Level Estimated
11:22PM 34.4075 122.5457 13° North  Level Estimated
11:23PM 34.5077 122.5739 13° North  Level Estimated
11:24PM 34.6080 122.6021 13° North  Level Estimated
11:25PM 34.7082 122.6304 13° North  Level Estimated
11:26PM 34.8085 122.6587 13° North  Level Estimated
11:27PM 34.9087 122.6871 13° North  Level Estimated
11:28PM 35.0090 122.7156 13° North  Level Estimated
11:29PM 35.1092 122.7442 13° North  Level Estimated
11:30PM 35.2094 122.7728 13° North  Level Estimated
11:31PM 35.3096 122.8015 13° North  Level Estimated
11:32PM 35.4098 122.8303 13° North  Level Estimated
11:33PM 35.5100 122.8591 13° North  Level Estimated
11:34PM 35.6102 122.8881 13° North  Level Estimated
11:35PM 35.7104 122.9171 13° North  Level Estimated
11:36PM 35.8106 122.9461 13° North  Level Estimated
11:37PM 35.9108 122.9753 13° North  Level Estimated
11:38PM 36.0109 123.0045 13° North  Level Estimated
11:39PM 36.1111 123.0338 13° North  Level Estimated
11:40PM 36.2113 123.0631 13° North  Level Estimated
11:41PM 36.3114 123.0926 13° North  Level Estimated
11:42PM 36.4115 123.1221 13° North  Level Estimated
11:43PM 36.5117 123.1516 13° North  Level Estimated
11:44PM 36.6118 123.1813 13° North  Level Estimated
11:45PM 36.7119 123.2111 13° North  Level Estimated
11:46PM 36.8120 123.2409 13° North  Level Estimated
11:47PM 36.9121 123.2708 13° North  Level Estimated
11:48PM 37.0122 123.3008 13° North  Level Estimated
11:49PM 37.1123 123.3308 13° North  Level Estimated
11:50PM 37.2124 123.3609 13° North  Level Estimated
11:51PM 37.3124 123.3911 14° North  Level Estimated
11:52PM 37.4125 123.4214 14° North  Level Estimated
11:53PM 37.5126 123.4518 14° North  Level Estimated
11:54PM 37.6126 123.4823 14° North  Level Estimated
11:55PM 37.7126 123.5128 14° North  Level Estimated
11:56PM 37.8127 123.5434 14° North  Level Estimated
11:57PM 37.9127 123.5742 14° North  Level Estimated
11:58PM 38.0127 123.6049 14° North  Level Estimated
11:59PM 38.1127 123.6358 14° North  Level Estimated
12:00AM 38.2127 123.6668 14° North  Level Estimated
12:01AM 38.3127 123.6978 14° North  Level Estimated
12:02AM 38.4127 123.7289 14° North  Level Estimated
12:03AM 38.5127 123.7601 14° North  Level Estimated
12:04AM 38.6126 123.7915 14° North  Level Estimated
12:05AM 38.7126 123.8228 14° North  Level Estimated
12:06AM 38.8125 123.8543 14° North  Level Estimated
12:07AM 38.9125 123.8859 14° North  Level Estimated
12:08AM 39.0124 123.9175 14° North  Level Estimated
12:09AM 39.1123 123.9493 14° North  Level Estimated
12:10AM 39.2122 123.9811 14° North  Level Estimated
12:11AM 39.3122 124.0130 14° North  Level Estimated
12:12AM 39.4121 124.0451 14° North  Level Estimated
12:13AM 39.5120 124.0772 14° North  Level Estimated
12:14AM 39.6118 124.1094 14° North  Level Estimated
12:15AM 39.7117 124.1417 14° North  Level Estimated
12:16AM 39.8116 124.1740 14° North  Level Estimated
12:17AM 39.9114 124.2065 14° North  Level Estimated
12:18AM 40.0112 124.2391 14° North  Level Estimated
12:19AM 40.1111 124.2718 14° North  Level Estimated
12:20AM 40.2109 124.3046 14° North  Level Estimated
12:21AM 40.3107 124.3374 14° North  Level Estimated
12:22AM 40.4105 124.3704 14° North  Level Estimated
12:23AM 40.5103 124.4034 14° North  Level Estimated
12:24AM 40.6101 124.4366 14° North  Level Estimated
12:25AM 40.7099 124.4698 14° North  Level Estimated
12:26AM 40.8097 124.5032 14° North  Level Estimated
12:27AM 40.9095 124.5367 14° North  Level Estimated
12:28AM 41.0092 124.5702 14° North  Level Estimated
12:29AM 41.1089 124.6039 14° North  Level Estimated
12:30AM 41.2087 124.6376 14° North  Level Estimated
12:31AM 41.3084 124.6715 14° North  Level Estimated
12:32AM 41.4081 124.7055 14° North  Level Estimated
12:33AM 41.5078 124.7396 14° North  Level Estimated
12:34AM 41.6075 124.7737 14° North  Level Estimated
12:35AM 41.7072 124.8080 14° North  Level Estimated
12:36AM 41.8068 124.8424 14° North  Level Estimated
12:37AM 41.9065 124.8769 14° North  Level Estimated
12:38AM 42.0061 124.9115 14° North  Level Estimated
12:39AM 42.1058 124.9462 14° North  Level Estimated
12:40AM 42.2054 124.9811 15° North  Level Estimated
12:41AM 42.3050 125.0160 15° North  Level Estimated
12:42AM 42.4047 125.0510 15° North  Level Estimated
12:43AM 42.5042 125.0862 15° North  Level Estimated
12:44AM 42.6038 125.1215 15° North  Level Estimated
12:45AM 42.7034 125.1569 15° North  Level Estimated
12:46AM 42.8030 125.1924 15° North  Level Estimated
12:47AM 42.9025 125.2280 15° North  Level Estimated
12:48AM 43.0021 125.2637 15° North  Level Estimated
12:49AM 43.1016 125.2995 15° North  Level Estimated
12:50AM 43.2011 125.3355 15° North  Level Estimated
12:51AM 43.3006 125.3716 15° North  Level Estimated
12:52AM 43.4001 125.4078 15° North  Level Estimated
12:53AM 43.4996 125.4441 15° North  Level Estimated
12:54AM 43.5991 125.4805 15° North  Level Estimated
12:55AM 43.6986 125.5170 15° North  Level Estimated
12:56AM 43.7980 125.5537 15° North  Level Estimated
12:57AM 43.8974 125.5905 15° North  Level Estimated
12:58AM 43.9969 125.6274 15° North  Level Estimated
12:59AM 44.0963 125.6645 15° North  Level Estimated
01:00AM 44.1957 125.7016 15° North  Level Estimated
01:01AM 44.2951 125.7389 15° North  Level Estimated
01:02AM 44.3945 125.7764 15° North  Level Estimated
01:03AM 44.4938 125.8139 15° North  Level Estimated
01:04AM 44.5932 125.8516 15° North  Level Estimated
01:05AM 44.6925 125.8894 15° North  Level Estimated
01:06AM 44.7919 125.9273 15° North  Level Estimated
01:07AM 44.8912 125.9654 15° North  Level Estimated
01:08AM 44.9905 126.0036 15° North  Level Estimated
01:09AM 45.0898 126.0419 15° North  Level Estimated
01:10AM 45.1890 126.0804 15° North  Level Estimated
01:11AM 45.2883 126.1190 15° North  Level Estimated
01:12AM 45.3876 126.1577 15° North  Level Estimated
01:13AM 45.4868 126.1966 15° North  Level Estimated
01:14AM 45.5860 126.2356 15° North  Level Estimated
01:15AM 45.6234 126.2503 15° North  Level Estimated
01:16AM 45.6234 126.2503 335° Northwest  Level Estimated
01:17AM 45.6234 126.2503 335° Northwest  Level Estimated
01:18AM 45.6234 126.2503 335° Northwest  Level Estimated
01:19AM 45.6234 126.2503 335° Northwest  Level Estimated
01:20AM 45.6234 126.2503 335° Northwest  Level Estimated
01:21AM 45.6234 126.2503 335° Northwest  Level Estimated
01:22AM 45.6234 126.2503 335° Northwest  Level Estimated
01:23AM 45.6234 126.2503 335° Northwest  Level Estimated
01:24AM 45.6234 126.2503 335° Northwest  Level Estimated
01:25AM 45.6234 126.2503 335° Northwest  Level Estimated
01:26AM 45.6234 126.2503 335° Northwest  Level Estimated
01:27AM 45.6234 126.2503 335° Northwest  Level Estimated
01:28AM 45.6234 126.2503 335° Northwest  Level Estimated
01:29AM 45.6234 126.2503 335° Northwest  Level Estimated
01:30AM 45.6234 126.2503 335° Northwest  Level Estimated
01:31AM 45.6234 126.2503 335° Northwest  Level Estimated